Time;durP1;ratioP1;P1;durP2;ratioP2;P2;SDS_P1;SDS_P2;PMS_P1;PMS_P2;Temp;Humidity;BMP_temperature;BMP_pressure;BME280_temperature;BME280_humidity;BME280_pressure;Samples;Min_cycle;Max_cycle;Signal;HPM_P1;HPM_P2
2021/03/15 00:01:02;;;;;;;15.15;5.75;;;7.80;85.20;;;;;;5009424;28;20038;-75
2021/03/15 00:03:28;;;;;;;14.63;5.25;;;7.80;85.30;;;;;;5006659;28;20058;-72
2021/03/15 00:05:53;;;;;;;16.05;5.30;;;7.80;85.30;;;;;;5020182;28;20038;-71
2021/03/15 00:08:20;;;;;;;15.90;6.15;;;7.90;85.10;;;;;;5011896;28;20514;-72
2021/03/15 00:10:45;;;;;;;16.92;5.45;;;7.80;85.30;;;;;;5009072;28;20026;-71
2021/03/15 00:13:13;;;;;;;17.00;5.65;;;7.90;85.30;;;;;;5007440;28;20536;-72
2021/03/15 00:15:39;;;;;;;16.05;6.07;;;7.90;85.40;;;;;;5028505;28;20052;-71
2021/03/15 00:18:05;;;;;;;18.33;6.80;;;7.90;85.30;;;;;;5007199;28;20112;-72
2021/03/15 00:20:32;;;;;;;16.42;7.10;;;8.00;85.30;;;;;;5006850;28;20072;-73
2021/03/15 00:22:58;;;;;;;13.80;6.50;;;7.90;85.40;;;;;;5011238;28;20041;-71
2021/03/15 00:25:24;;;;;;;16.08;5.53;;;8.00;85.40;;;;;;5007564;28;20346;-71
2021/03/15 00:27:49;;;;;;;16.33;6.70;;;8.00;85.10;;;;;;5009275;28;20030;-71
2021/03/15 00:30:17;;;;;;;16.17;7.78;;;8.10;85.50;;;;;;5010184;28;20357;-72
2021/03/15 00:32:44;;;;;;;17.45;6.10;;;8.00;86.00;;;;;;5006560;28;20374;-72
2021/03/15 00:35:12;;;;;;;21.60;6.50;;;8.00;86.10;;;;;;5006856;28;20053;-72
2021/03/15 00:37:38;;;;;;;14.55;5.80;;;8.10;85.80;;;;;;5011244;28;20369;-72
2021/03/15 00:40:06;;;;;;;15.35;6.57;;;8.10;85.60;;;;;;5004971;28;20373;-71
2021/03/15 00:42:32;;;;;;;14.25;5.78;;;8.10;85.60;;;;;;5009133;28;20037;-71
2021/03/15 00:44:58;;;;;;;18.90;5.47;;;8.10;85.60;;;;;;5010201;28;20439;-71
2021/03/15 00:47:24;;;;;;;16.83;5.72;;;8.10;85.70;;;;;;5011196;28;20027;-72
2021/03/15 00:49:49;;;;;;;18.73;5.93;;;8.10;86.10;;;;;;5009129;28;20041;-72
2021/03/15 00:52:15;;;;;;;17.60;6.53;;;8.10;86.10;;;;;;5002548;28;20124;-71
2021/03/15 00:54:40;;;;;;;18.27;6.22;;;8.10;86.00;;;;;;5005837;28;20041;-71
2021/03/15 00:57:06;;;;;;;16.92;6.70;;;8.10;86.10;;;;;;5007291;28;20409;-75
2021/03/15 00:59:32;;;;;;;16.65;6.25;;;8.10;86.20;;;;;;5002919;28;20487;-71
2021/03/15 01:01:57;;;;;;;14.68;6.32;;;8.10;86.50;;;;;;5011351;28;20042;-71
2021/03/15 01:04:23;;;;;;;19.30;7.18;;;8.10;86.70;;;;;;5003063;28;20557;-71
2021/03/15 01:06:49;;;;;;;17.35;7.05;;;8.10;86.90;;;;;;5016828;28;20084;-72
2021/03/15 01:09:15;;;;;;;20.40;7.72;;;8.00;87.00;;;;;;5004657;28;20373;-71
2021/03/15 01:11:42;;;;;;;23.02;8.15;;;8.00;87.00;;;;;;5012975;28;20030;-71
2021/03/15 01:14:08;;;;;;;23.75;7.78;;;8.00;87.00;;;;;;5001706;28;20034;-74
2021/03/15 01:16:34;;;;;;;17.00;6.82;;;8.10;86.90;;;;;;5009928;28;20034;-71
2021/03/15 01:19:00;;;;;;;19.33;7.72;;;8.10;86.80;;;;;;5014411;28;20457;-72
2021/03/15 01:21:26;;;;;;;21.65;8.40;;;8.10;86.80;;;;;;5005010;28;20038;-72
2021/03/15 01:23:53;;;;;;;18.92;8.55;;;8.10;86.90;;;;;;5007310;28;20025;-71
2021/03/15 01:26:19;;;;;;;17.17;7.50;;;8.10;87.10;;;;;;4998370;28;20353;-69
2021/03/15 01:28:45;;;;;;;20.80;8.10;;;8.10;87.60;;;;;;5012472;28;20087;-71
2021/03/15 01:31:11;;;;;;;20.60;9.13;;;8.00;87.90;;;;;;5006319;28;20029;-71
2021/03/15 01:33:37;;;;;;;27.58;12.10;;;8.00;88.20;;;;;;5010872;28;20481;-71
2021/03/15 01:36:03;;;;;;;23.45;13.30;;;8.00;88.40;;;;;;5008279;28;20049;-71
2021/03/15 01:38:28;;;;;;;24.85;12.50;;;8.00;88.00;;;;;;5004785;28;20033;-71
2021/03/15 01:40:54;;;;;;;22.13;11.02;;;8.00;88.10;;;;;;5004337;28;20384;-70
2021/03/15 01:43:20;;;;;;;22.58;9.73;;;8.00;88.30;;;;;;5011531;28;20026;-71
2021/03/15 01:45:45;;;;;;;21.58;9.43;;;8.10;88.20;;;;;;5002756;28;20080;-70
2021/03/15 01:48:14;;;;;;;20.88;8.68;;;8.00;88.20;;;;;;5005764;28;20025;-71
2021/03/15 01:50:41;;;;;;;20.95;8.65;;;8.10;88.10;;;;;;5014968;28;20042;-70
2021/03/15 01:53:07;;;;;;;20.63;9.68;;;8.10;88.10;;;;;;5004516;28;20025;-70
2021/03/15 01:55:33;;;;;;;27.08;10.27;;;8.10;88.20;;;;;;5028801;28;20040;-71
2021/03/15 01:58:00;;;;;;;28.85;9.68;;;8.10;88.20;;;;;;5014477;28;20372;-71
2021/03/15 02:00:27;;;;;;;22.65;10.32;;;8.10;88.30;;;;;;4999681;28;20053;-71
2021/03/15 02:02:59;;;;;;;20.48;9.38;;;8.10;88.50;;;;;;5003119;28;20832;-71
2021/03/15 02:05:26;;;;;;;21.25;9.45;;;8.10;88.50;;;;;;5002727;28;20034;-70
2021/03/15 02:07:52;;;;;;;16.00;9.10;;;8.10;88.50;;;;;;5003488;28;20033;-70
2021/03/15 02:10:18;;;;;;;29.67;9.73;;;8.10;88.40;;;;;;5004800;28;20373;-71
2021/03/15 02:12:54;;;;;;;22.27;8.85;;;8.10;88.20;;;;;;5002171;28;20038;-70
2021/03/15 02:15:50;;;;;;;21.60;9.07;;;8.10;88.10;;;;;;5005594;28;22299;-70
2021/03/15 02:18:33;;;;;;;22.40;9.18;;;8.20;87.90;;;;;;5010707;28;20470;-71
2021/03/15 02:21:20;;;;;;;21.33;8.57;;;8.20;87.60;;;;;;5001927;28;20062;-72
2021/03/15 02:23:58;;;;;;;21.40;7.22;;;8.30;87.40;;;;;;4999144;28;20033;-71
2021/03/15 02:26:52;;;;;;;17.65;7.35;;;8.30;87.30;;;;;;5009165;28;20045;-71
2021/03/15 02:29:51;;;;;;;22.27;8.87;;;8.30;87.50;;;;;;5023972;28;20107;-71
2021/03/15 02:32:35;;;;;;;17.77;6.75;;;8.30;87.70;;;;;;5017946;28;20295;-73
2021/03/15 02:35:17;;;;;;;19.70;7.50;;;8.20;87.90;;;;;;5003091;28;20188;-72
2021/03/15 02:37:46;;;;;;;20.30;7.82;;;8.30;88.00;;;;;;5007637;28;20034;-71
2021/03/15 02:40:22;;;;;;;19.48;7.78;;;8.30;87.80;;;;;;5005957;28;20069;-70
2021/03/15 02:42:52;;;;;;;18.83;7.22;;;8.20;87.90;;;;;;5006221;28;20034;-70
2021/03/15 02:45:19;;;;;;;17.92;7.80;;;8.30;88.00;;;;;;5007562;28;20033;-72
2021/03/15 02:47:48;;;;;;;16.77;7.55;;;8.20;88.00;;;;;;5015008;28;20083;-71
2021/03/15 02:50:14;;;;;;;25.58;7.60;;;8.20;88.10;;;;;;4997477;28;20160;-70
2021/03/15 02:52:46;;;;;;;22.05;8.20;;;8.30;88.00;;;;;;5000093;28;20144;-71
2021/03/15 02:55:19;;;;;;;19.77;8.35;;;8.30;87.90;;;;;;4998788;28;20040;-71
2021/03/15 02:57:48;;;;;;;23.77;8.32;;;8.30;87.60;;;;;;5005482;28;20092;-70
2021/03/15 03:00:15;;;;;;;19.30;8.25;;;8.30;87.50;;;;;;4999351;28;20034;-70
2021/03/15 03:02:46;;;;;;;17.10;6.90;;;8.30;87.30;;;;;;5006599;28;20118;-70
2021/03/15 03:05:13;;;;;;;18.30;7.53;;;8.30;87.30;;;;;;5010278;28;20030;-70
2021/03/15 03:07:44;;;;;;;15.73;6.97;;;8.30;87.10;;;;;;5012238;28;20060;-71
2021/03/15 03:10:11;;;;;;;17.83;7.63;;;8.30;87.20;;;;;;5007941;28;20034;-71
2021/03/15 03:12:39;;;;;;;19.73;7.80;;;8.30;87.10;;;;;;5007710;28;20167;-71
2021/03/15 03:15:07;;;;;;;25.88;7.82;;;8.30;87.20;;;;;;5003073;28;20022;-70
2021/03/15 03:17:41;;;;;;;21.90;8.23;;;8.30;87.20;;;;;;5006388;28;21191;-72
2021/03/15 03:20:13;;;;;;;19.55;7.38;;;8.30;87.20;;;;;;5005754;28;20095;-71
2021/03/15 03:22:43;;;;;;;19.30;8.27;;;8.30;87.00;;;;;;5007886;28;20053;-70
2021/03/15 03:25:12;;;;;;;22.52;8.23;;;8.30;86.90;;;;;;5012267;28;20456;-71
2021/03/15 03:27:39;;;;;;;17.77;8.00;;;8.40;86.90;;;;;;5000818;28;20025;-71
2021/03/15 03:30:07;;;;;;;18.05;8.55;;;8.30;86.90;;;;;;5007763;28;20026;-72
2021/03/15 03:32:36;;;;;;;19.58;8.93;;;8.40;86.80;;;;;;5021285;28;20094;-71
2021/03/15 03:35:03;;;;;;;19.65;9.13;;;8.40;86.50;;;;;;4995954;28;20037;-71
2021/03/15 03:37:29;;;;;;;22.23;9.63;;;8.30;86.60;;;;;;5009849;28;20076;-70
2021/03/15 03:39:55;;;;;;;20.05;9.77;;;8.40;86.70;;;;;;5004412;28;20030;-70
2021/03/15 03:42:20;;;;;;;19.60;9.73;;;8.40;86.70;;;;;;5004737;28;20045;-71
2021/03/15 03:44:46;;;;;;;20.75;10.38;;;8.30;86.80;;;;;;4997974;28;20112;-71
2021/03/15 03:47:12;;;;;;;23.40;10.20;;;8.30;86.80;;;;;;5000166;28;20389;-74
2021/03/15 03:49:38;;;;;;;25.55;10.57;;;8.30;86.90;;;;;;5004245;28;20037;-70
2021/03/15 03:52:07;;;;;;;22.10;10.02;;;8.30;86.80;;;;;;4996396;28;20042;-71
2021/03/15 03:54:38;;;;;;;19.63;10.65;;;8.20;86.80;;;;;;5008364;28;20104;-70
2021/03/15 03:57:08;;;;;;;21.73;10.68;;;8.20;86.90;;;;;;4998494;28;20035;-71
2021/03/15 03:59:37;;;;;;;22.45;10.82;;;8.20;86.90;;;;;;5005673;28;20469;-71
2021/03/15 04:02:04;;;;;;;19.10;10.50;;;8.20;87.10;;;;;;4997089;28;20038;-71
2021/03/15 04:04:36;;;;;;;24.60;11.70;;;8.20;87.10;;;;;;5010042;28;20156;-72
2021/03/15 04:07:05;;;;;;;22.98;11.02;;;8.20;87.00;;;;;;5004827;28;20038;-73
2021/03/15 04:09:33;;;;;;;21.98;10.02;;;8.20;86.70;;;;;;5008258;28;20087;-71
2021/03/15 04:12:05;;;;;;;21.48;10.82;;;8.10;86.60;;;;;;5005847;28;20491;-71
2021/03/15 04:14:42;;;;;;;23.90;11.70;;;8.10;86.60;;;;;;5005696;28;20034;-71
2021/03/15 04:17:15;;;;;;;23.77;11.38;;;8.10;86.70;;;;;;5003388;28;20047;-71
2021/03/15 04:20:04;;;;;;;20.70;11.02;;;8.10;86.80;;;;;;5008844;28;21020;-70
2021/03/15 04:22:33;;;;;;;28.80;11.80;;;8.10;86.90;;;;;;5009563;28;20049;-72
2021/03/15 04:25:01;;;;;;;22.98;11.55;;;8.00;87.00;;;;;;5002695;28;20427;-70
2021/03/15 04:27:29;;;;;;;22.65;10.63;;;8.00;86.80;;;;;;5010648;28;20381;-71
2021/03/15 04:29:55;;;;;;;24.73;10.85;;;8.00;86.70;;;;;;5008657;28;20065;-71
2021/03/15 04:32:21;;;;;;;22.02;11.13;;;8.00;86.50;;;;;;5006240;28;20559;-71
2021/03/15 04:34:48;;;;;;;23.73;10.95;;;8.10;86.40;;;;;;5004651;28;20141;-70
2021/03/15 04:37:15;;;;;;;24.30;11.82;;;8.00;86.40;;;;;;5003810;28;20172;-71
2021/03/15 04:39:41;;;;;;;21.35;11.10;;;7.90;86.40;;;;;;5006393;28;20058;-70
2021/03/15 04:42:07;;;;;;;18.55;11.25;;;7.90;86.50;;;;;;5005025;28;20057;-70
2021/03/15 04:44:34;;;;;;;24.88;11.80;;;7.90;86.50;;;;;;5011345;28;20030;-70
2021/03/15 04:47:01;;;;;;;28.23;12.68;;;7.90;86.60;;;;;;5022231;28;20034;-71
2021/03/15 04:49:28;;;;;;;24.20;12.40;;;7.80;86.70;;;;;;5007352;28;20056;-71
2021/03/15 04:51:54;;;;;;;25.17;12.82;;;7.70;86.80;;;;;;5002703;28;20168;-70
2021/03/15 04:54:20;;;;;;;24.00;12.93;;;7.70;86.90;;;;;;5003974;28;20401;-71
2021/03/15 04:56:50;;;;;;;20.33;11.35;;;7.60;86.70;;;;;;4999667;28;20134;-71
2021/03/15 04:59:18;;;;;;;22.85;11.45;;;7.60;86.30;;;;;;5000988;28;20030;-70
2021/03/15 05:01:44;;;;;;;23.65;10.85;;;7.60;86.40;;;;;;5011275;28;20440;-71
2021/03/15 05:04:11;;;;;;;20.77;11.15;;;7.50;86.50;;;;;;5001231;28;20030;-72
2021/03/15 05:06:42;;;;;;;19.52;11.15;;;7.50;86.60;;;;;;5003235;28;20144;-69
2021/03/15 05:09:09;;;;;;;21.40;10.43;;;7.40;86.60;;;;;;5006465;28;20040;-72
2021/03/15 05:11:37;;;;;;;18.20;9.70;;;7.40;86.70;;;;;;5014440;28;20038;-72
2021/03/15 05:14:06;;;;;;;18.48;9.82;;;7.30;86.70;;;;;;5008367;28;20033;-71
2021/03/15 05:16:37;;;;;;;19.40;10.10;;;7.20;86.80;;;;;;5001280;28;20030;-73
2021/03/15 05:19:04;;;;;;;19.55;10.52;;;7.10;87.00;;;;;;5006671;28;20531;-72
2021/03/15 05:21:32;;;;;;;17.35;9.73;;;7.10;87.00;;;;;;5001801;28;20441;-72
2021/03/15 05:23:58;;;;;;;21.15;9.50;;;7.10;86.90;;;;;;5012205;28;20061;-72
2021/03/15 05:26:25;;;;;;;24.08;10.18;;;7.00;87.00;;;;;;5003955;28;20914;-75
2021/03/15 05:28:51;;;;;;;18.38;9.50;;;6.90;87.10;;;;;;5003634;28;20033;-71
2021/03/15 05:31:18;;;;;;;17.55;8.73;;;6.90;87.10;;;;;;5001903;28;20160;-71
2021/03/15 05:33:45;;;;;;;18.90;8.50;;;6.90;87.00;;;;;;5008053;28;20124;-73
2021/03/15 05:36:14;;;;;;;17.67;8.20;;;6.80;87.10;;;;;;5002674;28;20855;-72
2021/03/15 05:38:40;;;;;;;18.98;8.32;;;6.80;87.10;;;;;;5000093;28;20056;-74
2021/03/15 05:41:11;;;;;;;20.42;8.43;;;6.70;87.00;;;;;;5004078;28;20038;-73
2021/03/15 05:44:09;;;;;;;17.70;8.15;;;6.60;87.00;;;;;;5005740;28;20308;-72
2021/03/15 05:46:46;;;;;;;19.38;8.48;;;6.60;87.00;;;;;;4986301;28;20042;-72
2021/03/15 05:49:24;;;;;;;20.20;7.72;;;6.50;87.10;;;;;;4997006;28;20035;-72
2021/03/15 05:52:03;;;;;;;19.60;7.93;;;6.50;87.30;;;;;;5000173;28;20042;-72
2021/03/15 05:55:04;;;;;;;20.10;7.93;;;6.40;87.50;;;;;;4997293;28;20464;-71
2021/03/15 05:58:06;;;;;;;19.63;8.95;;;6.40;87.50;;;;;;5014683;28;20049;-70
2021/03/15 06:01:00;;;;;;;16.40;8.40;;;6.40;87.60;;;;;;4995566;28;20064;-72
2021/03/15 06:03:53;;;;;;;20.35;7.80;;;6.30;87.70;;;;;;5006141;28;20038;-71
2021/03/15 06:06:21;;;;;;;16.27;8.10;;;6.20;87.90;;;;;;5021093;28;20515;-71
2021/03/15 06:08:51;;;;;;;18.58;7.43;;;6.20;87.90;;;;;;5006491;28;20393;-70
2021/03/15 06:11:20;;;;;;;17.27;6.65;;;6.20;88.00;;;;;;4999947;28;20113;-70
2021/03/15 06:13:46;;;;;;;18.65;7.13;;;6.10;87.90;;;;;;4996816;28;20023;-70
2021/03/15 06:16:14;;;;;;;12.63;7.25;;;6.10;88.00;;;;;;4985229;28;20029;-70
2021/03/15 06:18:40;;;;;;;16.40;7.38;;;6.10;88.00;;;;;;4985693;28;20053;-71
2021/03/15 06:21:10;;;;;;;12.43;7.38;;;6.10;88.10;;;;;;4987584;28;20507;-70
2021/03/15 06:23:36;;;;;;;16.48;8.40;;;6.10;88.20;;;;;;4981319;28;20030;-71
2021/03/15 06:26:02;;;;;;;20.98;7.53;;;6.10;88.10;;;;;;4984594;28;20049;-70
2021/03/15 06:28:28;;;;;;;17.48;6.90;;;6.00;88.00;;;;;;4980176;28;20129;-70
2021/03/15 06:30:54;;;;;;;15.18;6.50;;;6.10;88.00;;;;;;4983261;28;20168;-70
2021/03/15 06:33:20;;;;;;;14.85;6.55;;;6.10;88.00;;;;;;4996045;28;20509;-74
2021/03/15 06:35:53;;;;;;;20.98;8.05;;;6.00;88.00;;;;;;5001661;28;20052;-69
2021/03/15 06:38:20;;;;;;;16.88;7.28;;;6.10;88.00;;;;;;5000066;28;20039;-70
2021/03/15 06:40:46;;;;;;;17.40;7.25;;;6.20;87.80;;;;;;5003139;28;20093;-71
2021/03/15 06:43:14;;;;;;;22.40;8.77;;;6.20;87.60;;;;;;5004276;28;20125;-70
2021/03/15 06:45:42;;;;;;;20.67;9.00;;;6.30;87.10;;;;;;5002757;28;20097;-73
2021/03/15 06:48:09;;;;;;;22.88;9.45;;;6.30;86.90;;;;;;4997896;28;20466;-72
2021/03/15 06:50:34;;;;;;;21.08;8.70;;;6.40;86.90;;;;;;5015724;28;20674;-71
2021/03/15 06:53:02;;;;;;;19.83;7.53;;;6.40;86.60;;;;;;5010644;28;20060;-71
2021/03/15 06:55:46;;;;;;;13.98;6.97;;;6.30;86.50;;;;;;5000193;28;20129;-70
2021/03/15 06:58:18;;;;;;;13.80;5.53;;;6.40;86.40;;;;;;4997110;28;21021;-69
2021/03/15 07:00:44;;;;;;;13.57;6.53;;;6.50;86.20;;;;;;4997372;28;20026;-70
2021/03/15 07:03:09;;;;;;;16.40;6.03;;;6.50;86.10;;;;;;4999700;28;20469;-71
2021/03/15 07:05:35;;;;;;;18.98;8.82;;;6.60;86.00;;;;;;5003174;28;20041;-70
2021/03/15 07:08:02;;;;;;;22.75;14.77;;;6.60;85.80;;;;;;4997465;28;20026;-74
2021/03/15 07:10:33;;;;;;;20.27;10.88;;;6.60;86.00;;;;;;4997002;28;20049;-70
2021/03/15 07:13:13;;;;;;;20.02;9.65;;;6.50;86.20;;;;;;5006138;28;20045;-70
2021/03/15 07:15:40;;;;;;;20.13;8.23;;;6.50;86.50;;;;;;5001833;28;20080;-70
2021/03/15 07:18:14;;;;;;;16.85;7.97;;;6.50;86.70;;;;;;4998856;28;20034;-72
2021/03/15 07:20:50;;;;;;;;;;;6.60;86.90;;;;;;5012056;28;20428;-70
2021/03/15 07:23:16;;;;;;;18.98;6.72;;;6.70;86.90;;;;;;5004653;28;19944;-68
2021/03/15 07:25:42;;;;;;;15.45;7.15;;;6.80;86.80;;;;;;5005912;28;20088;-68
2021/03/15 07:28:08;;;;;;;15.02;6.68;;;6.90;86.70;;;;;;5004046;28;20055;-69
2021/03/15 07:30:40;;;;;;;12.05;6.85;;;7.10;86.60;;;;;;5002062;28;20057;-70
2021/03/15 07:33:16;;;;;;;20.00;6.63;;;7.20;86.20;;;;;;5009293;28;20088;-69
2021/03/15 07:35:42;;;;;;;13.48;7.13;;;7.30;85.70;;;;;;5002613;28;20037;-69
2021/03/15 07:38:08;;;;;;;12.68;6.70;;;7.40;85.70;;;;;;5000206;28;20112;-70
2021/03/15 07:40:46;;;;;;;15.63;6.13;;;7.50;85.50;;;;;;5002043;28;20058;-70
2021/03/15 07:43:16;;;;;;;16.77;6.63;;;7.60;85.60;;;;;;5006998;28;20037;-69
2021/03/15 07:45:47;;;;;;;15.43;6.70;;;7.70;85.20;;;;;;5011168;28;20361;-69
2021/03/15 07:48:14;;;;;;;14.25;5.72;;;7.60;85.10;;;;;;5006466;28;20030;-69
2021/03/15 07:51:02;;;;;;;19.45;6.45;;;7.60;84.80;;;;;;5007129;28;20469;-71
2021/03/15 07:53:46;;;;;;;19.92;6.70;;;7.70;84.80;;;;;;5005574;28;20042;-73
2021/03/15 07:56:18;;;;;;;25.30;6.78;;;8.10;84.80;;;;;;5009163;28;20448;-71
2021/03/15 07:58:44;;;;;;;22.15;7.30;;;8.30;84.00;;;;;;5010500;28;20057;-70
2021/03/15 08:01:10;;;;;;;18.85;6.00;;;8.40;83.30;;;;;;5000472;28;20041;-71
2021/03/15 08:03:38;;;;;;;10.82;5.05;;;8.50;82.80;;;;;;5024017;28;20042;-71
2021/03/15 08:06:04;;;;;;;12.60;4.97;;;8.50;81.90;;;;;;5006592;28;20508;-73
2021/03/15 08:08:29;;;;;;;12.00;4.80;;;8.40;82.60;;;;;;5009543;28;20441;-71
2021/03/15 08:10:56;;;;;;;12.35;4.47;;;8.30;82.50;;;;;;5021311;28;20029;-73
2021/03/15 08:13:25;;;;;;;13.35;5.55;;;8.30;82.40;;;;;;5011206;28;20029;-70
2021/03/15 08:15:52;;;;;;;11.95;4.95;;;8.50;82.60;;;;;;5007203;28;20103;-74
2021/03/15 08:18:23;;;;;;;11.30;4.53;;;8.70;81.60;;;;;;5005748;28;20429;-71
2021/03/15 08:20:52;;;;;;;10.13;4.20;;;8.70;80.00;;;;;;5010152;28;20038;-71
2021/03/15 08:23:18;;;;;;;10.80;4.00;;;8.70;80.20;;;;;;5003938;28;20489;-74
2021/03/15 08:25:46;;;;;;;10.48;4.57;;;8.60;80.10;;;;;;5018399;28;20481;-72
2021/03/15 08:28:12;;;;;;;10.10;4.28;;;8.70;80.20;;;;;;5004445;28;20053;-70
2021/03/15 08:30:45;;;;;;;7.97;3.53;;;8.90;79.40;;;;;;5007608;28;20030;-71
2021/03/15 08:33:14;;;;;;;11.00;4.10;;;9.00;78.10;;;;;;5003818;28;20453;-72
2021/03/15 08:35:42;;;;;;;12.88;5.00;;;9.20;78.50;;;;;;5010083;28;20034;-71
2021/03/15 08:38:09;;;;;;;12.40;4.30;;;9.50;77.20;;;;;;4996297;28;20072;-71
2021/03/15 08:40:41;;;;;;;8.95;3.67;;;9.40;77.40;;;;;;5006859;28;20539;-71
2021/03/15 08:43:18;;;;;;;11.73;4.40;;;9.30;77.40;;;;;;5010687;28;20081;-72
2021/03/15 08:45:53;;;;;;;7.97;3.03;;;9.20;78.20;;;;;;5007822;28;20085;-72
2021/03/15 08:48:40;;;;;;;12.98;3.60;;;9.10;77.40;;;;;;5002568;28;20046;-70
2021/03/15 08:51:07;;;;;;;10.27;3.53;;;8.90;77.40;;;;;;5007629;28;20034;-69
2021/03/15 08:53:44;;;;;;;10.18;3.85;;;8.90;77.90;;;;;;5003494;28;20092;-72
2021/03/15 08:56:19;;;;;;;10.82;3.65;;;8.80;77.60;;;;;;5005234;28;20096;-71
2021/03/15 08:58:47;;;;;;;11.32;3.20;;;8.70;77.80;;;;;;5002699;28;20119;-70
2021/03/15 09:01:18;;;;;;;12.82;4.78;;;8.60;77.50;;;;;;5007149;28;20038;-71
2021/03/15 09:03:55;;;;;;;7.93;3.53;;;8.60;77.90;;;;;;5017911;28;20405;-71
2021/03/15 09:06:33;;;;;;;22.63;4.00;;;8.80;76.60;;;;;;5015076;28;23078;-73
2021/03/15 09:09:09;;;;;;;13.65;4.22;;;9.10;76.70;;;;;;5007172;28;20030;-70
2021/03/15 09:11:35;;;;;;;13.55;3.85;;;9.50;75.00;;;;;;5007221;28;20036;-72
2021/03/15 09:14:16;;;;;;;10.80;3.17;;;9.70;74.80;;;;;;5006307;28;20034;-71
2021/03/15 09:16:58;;;;;;;12.38;3.67;;;10.00;74.40;;;;;;5004084;28;20462;-71
2021/03/15 09:19:39;;;;;;;11.02;3.30;;;10.10;72.20;;;;;;5001199;28;20377;-69
2021/03/15 09:22:20;;;;;;;10.93;3.80;;;9.90;73.10;;;;;;5003667;28;20045;-72
2021/03/15 09:25:06;;;;;;;9.25;2.42;;;10.00;71.70;;;;;;5001118;28;20377;-72
2021/03/15 09:27:42;;;;;;;10.20;2.75;;;9.90;69.00;;;;;;4995634;28;20022;-70
2021/03/15 09:30:13;;;;;;;11.27;2.95;;;10.10;70.20;;;;;;4996687;28;20038;-74
2021/03/15 09:32:49;;;;;;;10.13;2.85;;;10.20;69.30;;;;;;5004089;28;20045;-70
2021/03/15 09:35:32;;;;;;;7.82;2.70;;;10.40;69.20;;;;;;4998250;28;20373;-70
2021/03/15 09:38:06;;;;;;;12.48;2.97;;;10.00;68.90;;;;;;4999081;28;20570;-72
2021/03/15 09:40:31;;;;;;;11.43;2.92;;;9.70;69.40;;;;;;5009334;28;20153;-70
2021/03/15 09:42:57;;;;;;;9.30;2.50;;;9.60;69.40;;;;;;5011881;28;20052;-72
2021/03/15 09:45:56;;;;;;;11.82;2.30;;;9.40;70.10;;;;;;5003141;28;20046;-71
2021/03/15 09:48:23;;;;;;;4.80;1.98;;;9.30;70.90;;;;;;4990274;28;20465;-72
2021/03/15 09:50:54;;;;;;;9.00;2.28;;;9.50;67.90;;;;;;5003699;28;20034;-71
2021/03/15 09:53:21;;;;;;;15.00;2.63;;;9.80;66.10;;;;;;4997039;28;20039;-71
2021/03/15 09:55:47;;;;;;;8.18;2.40;;;10.10;66.80;;;;;;5002589;28;20069;-70
2021/03/15 09:58:14;;;;;;;8.20;2.15;;;10.30;66.90;;;;;;4997924;28;20030;-68
2021/03/15 10:00:41;;;;;;;10.70;2.35;;;10.20;66.30;;;;;;5000283;28;20034;-68
2021/03/15 10:03:07;;;;;;;7.20;2.20;;;9.90;65.60;;;;;;5020645;28;20039;-70
2021/03/15 10:05:33;;;;;;;9.48;2.47;;;9.80;65.50;;;;;;4997639;28;20045;-71
2021/03/15 10:07:59;;;;;;;8.38;2.17;;;10.10;65.10;;;;;;5002081;28;20042;-68
2021/03/15 10:10:25;;;;;;;7.03;1.90;;;10.50;64.60;;;;;;4991047;28;20031;-69
2021/03/15 10:13:05;;;;;;;7.28;1.95;;;10.50;62.50;;;;;;5004022;28;20033;-70
2021/03/15 10:15:31;;;;;;;11.68;2.53;;;10.60;62.40;;;;;;5010007;28;20098;-77
2021/03/15 10:17:57;;;;;;;9.38;2.35;;;10.50;62.10;;;;;;5009685;28;20108;-72
2021/03/15 10:20:34;;;;;;;9.13;1.90;;;10.50;62.40;;;;;;5008456;28;20080;-71
2021/03/15 10:23:18;;;;;;;5.88;1.73;;;10.60;63.00;;;;;;5007647;28;20050;-70
2021/03/15 10:25:54;;;;;;;6.43;2.08;;;10.40;62.40;;;;;;5000568;28;20026;-70
2021/03/15 10:28:20;;;;;;;5.70;2.15;;;10.20;63.10;;;;;;4997197;28;20030;-73
2021/03/15 10:30:46;;;;;;;7.25;2.10;;;10.00;64.10;;;;;;5005010;28;20475;-72
2021/03/15 10:33:11;;;;;;;6.57;1.60;;;10.10;63.80;;;;;;5000313;28;20025;-73
2021/03/15 10:35:39;;;;;;;7.22;1.90;;;10.10;60.30;;;;;;5006976;28;20048;-74
2021/03/15 10:38:05;;;;;;;6.25;1.80;;;10.10;61.50;;;;;;5010257;28;20373;-69
2021/03/15 10:40:31;;;;;;;6.05;1.65;;;10.20;62.90;;;;;;5006457;28;20065;-73
2021/03/15 10:42:59;;;;;;;5.07;1.70;;;10.30;61.70;;;;;;5002513;28;20057;-70
2021/03/15 10:45:27;;;;;;;5.57;1.75;;;10.50;60.00;;;;;;4996793;28;20588;-70
2021/03/15 10:48:03;;;;;;;7.25;1.65;;;10.60;58.50;;;;;;5004610;28;20120;-71
2021/03/15 10:50:34;;;;;;;7.70;2.20;;;10.60;59.10;;;;;;5005802;28;20042;-69
2021/03/15 10:53:22;;;;;;;8.07;1.75;;;10.50;59.50;;;;;;5003458;28;20044;-71
2021/03/15 10:55:49;;;;;;;5.40;1.83;;;10.70;59.80;;;;;;5001348;28;20041;-72
2021/03/15 10:58:16;;;;;;;8.70;2.35;;;10.60;60.60;;;;;;5000508;28;20026;-72
2021/03/15 11:00:48;;;;;;;8.45;1.70;;;10.50;59.80;;;;;;5002059;28;20101;-69
2021/03/15 11:03:22;;;;;;;10.15;2.58;;;10.60;59.20;;;;;;5000372;28;20040;-68
2021/03/15 11:06:02;;;;;;;7.20;2.33;;;10.70;59.70;;;;;;4994390;28;20022;-69
2021/03/15 11:08:28;;;;;;;8.05;1.88;;;11.00;60.90;;;;;;4999372;28;20074;-70
2021/03/15 11:10:53;;;;;;;8.35;1.92;;;11.10;59.40;;;;;;4993539;28;20425;-69
2021/03/15 11:13:21;;;;;;;8.95;2.53;;;11.10;60.00;;;;;;4996400;28;20030;-68
2021/03/15 11:15:47;;;;;;;7.45;2.10;;;11.00;59.70;;;;;;5004755;28;20038;-68
2021/03/15 11:18:19;;;;;;;7.13;1.60;;;11.00;60.10;;;;;;5003376;28;20030;-71
2021/03/15 11:20:56;;;;;;;7.63;1.98;;;11.10;59.30;;;;;;5001037;28;20038;-69
2021/03/15 11:23:36;;;;;;;7.72;1.80;;;11.00;60.70;;;;;;4999727;28;20145;-70
2021/03/15 11:26:10;;;;;;;8.10;1.98;;;10.70;60.40;;;;;;4998260;28;20417;-70
2021/03/15 11:28:39;;;;;;;5.45;1.90;;;10.70;62.20;;;;;;4996924;28;20037;-70
2021/03/15 11:31:06;;;;;;;5.20;2.35;;;11.00;60.20;;;;;;4987898;28;20041;-70
2021/03/15 11:33:32;;;;;;;7.35;1.65;;;11.00;58.20;;;;;;5005405;28;20429;-71
2021/03/15 11:36:00;;;;;;;6.38;1.35;;;10.40;58.60;;;;;;5000521;28;20408;-69
2021/03/15 11:38:27;;;;;;;6.35;1.30;;;10.40;59.10;;;;;;4996514;28;20043;-70
2021/03/15 11:40:53;;;;;;;6.63;1.73;;;10.80;56.40;;;;;;5000248;28;20042;-71
2021/03/15 11:43:20;;;;;;;5.95;1.70;;;11.10;57.40;;;;;;4996996;28;20101;-70
2021/03/15 11:45:45;;;;;;;6.35;1.65;;;11.10;57.40;;;;;;5014097;28;20038;-70
2021/03/15 11:48:11;;;;;;;3.92;1.63;;;11.30;57.70;;;;;;5003207;28;20516;-71
2021/03/15 11:50:38;;;;;;;6.65;1.77;;;11.00;59.30;;;;;;4993592;28;20018;-71
2021/03/15 11:53:06;;;;;;;6.82;1.92;;;10.70;58.70;;;;;;4999640;28;20496;-69
2021/03/15 11:55:32;;;;;;;5.82;1.75;;;10.50;58.70;;;;;;5015388;28;20038;-69
2021/03/15 11:57:58;;;;;;;5.32;1.40;;;10.50;56.40;;;;;;5003904;28;20041;-70
2021/03/15 12:00:24;;;;;;;7.63;2.45;;;10.50;57.90;;;;;;5001038;28;20074;-73
2021/03/15 12:02:51;;;;;;;6.80;1.80;;;10.80;59.00;;;;;;5005518;28;20053;-69
2021/03/15 12:05:18;;;;;;;9.30;1.77;;;10.90;58.60;;;;;;5001417;28;20061;-70
2021/03/15 12:07:45;;;;;;;4.97;1.50;;;11.00;57.20;;;;;;4994368;28;20027;-70
2021/03/15 12:10:12;;;;;;;7.93;2.05;;;10.70;57.40;;;;;;5003509;28;20029;-70
2021/03/15 12:12:38;;;;;;;8.00;2.03;;;10.60;60.00;;;;;;5006395;28;20472;-70
2021/03/15 12:15:10;;;;;;;7.72;2.08;;;10.80;59.10;;;;;;4999326;28;20042;-71
2021/03/15 12:17:36;;;;;;;6.00;1.60;;;11.10;59.80;;;;;;5005764;28;20030;-70
2021/03/15 12:20:05;;;;;;;6.88;1.67;;;10.90;58.90;;;;;;5006530;28;20095;-69
2021/03/15 12:22:31;;;;;;;5.88;2.22;;;11.00;60.50;;;;;;5002512;28;20042;-70
2021/03/15 12:24:57;;;;;;;6.97;2.00;;;11.10;60.40;;;;;;5000461;28;20037;-70
2021/03/15 12:27:23;;;;;;;4.90;1.98;;;11.10;59.40;;;;;;5003110;28;20034;-69
2021/03/15 12:29:48;;;;;;;5.70;1.55;;;11.30;59.30;;;;;;5014637;28;20060;-70
2021/03/15 12:32:14;;;;;;;6.65;1.80;;;11.30;59.90;;;;;;4999423;28;20115;-69
2021/03/15 12:34:40;;;;;;;4.13;1.40;;;11.30;58.80;;;;;;4997324;28;20092;-69
2021/03/15 12:37:06;;;;;;;7.65;1.63;;;11.30;57.20;;;;;;4993237;28;20034;-72
2021/03/15 12:39:31;;;;;;;5.50;1.50;;;11.10;59.00;;;;;;5004677;28;20062;-70
2021/03/15 12:42:00;;;;;;;6.20;1.80;;;10.90;59.50;;;;;;4996413;28;20046;-71
2021/03/15 12:44:26;;;;;;;6.45;1.27;;;10.60;59.70;;;;;;4993448;28;20043;-70
2021/03/15 12:46:52;;;;;;;5.05;1.42;;;10.80;59.00;;;;;;5001234;28;20028;-71
2021/03/15 12:49:18;;;;;;;5.63;1.55;;;11.00;57.60;;;;;;5005376;28;20042;-70
2021/03/15 12:51:43;;;;;;;5.15;1.20;;;11.00;57.20;;;;;;4996058;28;20092;-68
2021/03/15 12:54:10;;;;;;;4.93;1.20;;;11.00;54.90;;;;;;5002792;28;20038;-70
2021/03/15 12:56:37;;;;;;;7.20;1.48;;;11.00;54.40;;;;;;4998605;28;20031;-70
2021/03/15 12:59:03;;;;;;;6.53;1.65;;;10.60;56.50;;;;;;4998073;28;20466;-70